Terminal Aerodrome Forecast
Issued by NWS Jackson, KY

Home | Current Version | Previous Version | Text Only | Print | Product List | Glossary On
Versions: 1 2 3 4 5 6 7 8 9 10 11 12 13 14 15 16 17 18 19 20
003
FTUS43 KJKL 221120
TAFLOZ
TAF
KLOZ 221120Z 2212/2312 00000KT 1/2SM FG VV001
     FM221230 00000KT 2SM BR SCT010
     FM221330 VRB04KT P6SM SKC
     FM230800 VRB03KT 3SM BR SCT250=

USA.gov is the U.S. government's official web portal to all federal, state and local government web resources and services.